Terminal Aerodrome Forecast
Issued by NWS Louisville, KY

Home | Current Version | Previous Version | Text Only | Print | Product List | Glossary On
Versions: 1 2 3 4 5 6 7 8 9 10 11 12 13 14 15 16 17 18 19 20 21
000
FTUS43 KLMK 280523
TAFLEX
TAF
KLEX 280523Z 2806/2906 19004KT P6SM FEW050 BKN250
     FM281000 20007KT P6SM VCSH SCT030 SCT100 BKN200
     FM281200 21010KT P6SM BKN035
     FM281700 22012G19KT P6SM BKN035
     FM282300 23012KT P6SM VCTS BKN040CB
     FM290500 26006KT P6SM SCT030 SCT250=

USA.gov is the U.S. government's official web portal to all federal, state and local government web resources and services.